Time;durP1;ratioP1;P1;durP2;ratioP2;P2;SDS_P1;SDS_P2;PMS_P1;PMS_P2;Temp;Humidity;BMP_temperature;BMP_pressure;BME280_temperature;BME280_humidity;BME280_pressure;Samples;Min_cycle;Max_cycle;Signal;HPM_P1;HPM_P2
2023/12/14 00:02:15;;;;;;;;;;;;;;;6.44;75.68;98847.28;5089955;28;19916;-81
2023/12/14 00:04:41;;;;;;;;;;;;;;;6.44;75.72;98863.00;5090029;28;20440;-83
2023/12/14 00:07:06;;;;;;;;;;;;;;;6.44;75.51;98850.72;5091042;28;20010;-81
2023/12/14 00:09:31;;;;;;;;;;;;;;;6.43;74.67;98856.13;5091311;28;19956;-82
2023/12/14 00:11:56;;;;;;;;;;;;;;;6.38;75.22;98865.31;5093107;28;19912;-81
2023/12/14 00:14:22;;;;;;;;;;;;;;;6.34;75.24;98869.25;5094876;28;20324;-81
2023/12/14 00:16:49;;;;;;;;;;;;;;;6.34;74.91;98871.06;5095068;28;20379;-81
2023/12/14 00:19:14;;;;;;;;;;;;;;;6.36;75.30;98869.09;5094609;28;19916;-82
2023/12/14 00:21:42;;;;;;;;;;;;;;;6.36;74.95;98880.38;5093278;28;19916;-81
2023/12/14 00:24:07;;;;;;;;;;;;;;;6.35;75.14;98870.06;5094556;28;20007;-80
2023/12/14 00:26:32;;;;;;;;;;;;;;;6.37;75.21;98868.91;5094505;28;20376;-81
2023/12/14 00:28:58;;;;;;;;;;;;;;;6.35;75.10;98873.50;5094865;28;19991;-80
2023/12/14 00:31:31;;;;;;;;;;;;;;;6.35;74.82;98872.69;5093129;28;20385;-81
2023/12/14 00:33:57;;;;;;;;;;;;;;;6.35;74.69;98873.50;5094377;28;19912;-81
2023/12/14 00:36:22;;;;;;;;;;;;;;;6.29;74.52;98881.22;5094242;28;19918;-80
2023/12/14 00:38:47;;;;;;;;;;;;;;;6.26;75.11;98878.94;5094190;28;20373;-81
2023/12/14 00:41:13;;;;;;;;;;;;;;;6.25;74.78;98885.16;5092839;28;20393;-81
2023/12/14 00:43:38;;;;;;;;;;;;;;;6.24;74.21;98878.28;5094007;28;19934;-80
2023/12/14 00:46:03;;;;;;;;;;;;;;;6.21;74.86;98868.94;5094125;28;19923;-81
2023/12/14 00:48:29;;;;;;;;;;;;;;;6.21;74.53;98881.25;5094141;28;19912;-81
2023/12/14 00:50:54;;;;;;;;;;;;;;;6.15;73.84;98890.59;5092979;28;20423;-81
2023/12/14 00:53:20;;;;;;;;;;;;;;;6.09;74.91;98879.94;5092972;28;19926;-81
2023/12/14 00:55:45;;;;;;;;;;;;;;;6.09;74.83;98872.91;5094030;28;19919;-81
2023/12/14 00:58:12;;;;;;;;;;;;;;;6.05;74.14;98875.03;5094018;28;19916;-81
2023/12/14 01:00:38;;;;;;;;;;;;;;;6.07;74.37;98867.00;5093759;28;19917;-80
2023/12/14 01:03:03;;;;;;;;;;;;;;;6.11;74.57;98880.59;5093753;28;19935;-81
2023/12/14 01:05:29;;;;;;;;;;;;;;;6.11;75.14;98876.19;5093851;28;19935;-80
2023/12/14 01:07:54;;;;;;;;;;;;;;;6.11;75.00;98864.88;5093916;28;19916;-82
2023/12/14 01:10:19;;;;;;;;;;;;;;;6.11;74.72;98870.13;5093711;28;20373;-81
2023/12/14 01:12:45;;;;;;;;;;;;;;;6.11;74.37;98862.25;5093893;28;19920;-81
2023/12/14 01:15:10;;;;;;;;;;;;;;;6.11;74.71;98860.47;5093588;28;19995;-81
2023/12/14 01:17:37;;;;;;;;;;;;;;;6.12;74.23;98863.91;5093535;28;20435;-81
2023/12/14 01:20:06;;;;;;;;;;;;;;;6.12;74.93;98859.47;5093625;28;19912;-81
2023/12/14 01:22:32;;;;;;;;;;;;;;;6.13;74.13;98860.28;5092823;28;20355;-82
2023/12/14 01:24:57;;;;;;;;;;;;;;;6.11;74.19;98843.91;5093278;28;19916;-81
2023/12/14 01:27:22;;;;;;;;;;;;;;;6.08;74.20;98855.53;5093687;28;20421;-81
2023/12/14 01:29:48;;;;;;;;;;;;;;;6.04;74.71;98859.47;5093459;28;19921;-81
2023/12/14 01:32:13;;;;;;;;;;;;;;;6.04;74.82;98844.56;5093522;28;19919;-81
2023/12/14 01:34:39;;;;;;;;;;;;;;;6.02;74.45;98841.31;5093383;28;19912;-81
2023/12/14 01:37:04;;;;;;;;;;;;;;;6.02;74.28;98837.88;5093342;28;19965;-83
2023/12/14 01:39:29;;;;;;;;;;;;;;;6.02;74.44;98832.63;5091882;28;19920;-81
2023/12/14 01:41:55;;;;;;;;;;;;;;;6.02;74.75;98822.16;5093084;28;19917;-83
2023/12/14 01:44:20;;;;;;;;;;;;;;;6.03;74.18;98808.06;5092904;28;19918;-81
2023/12/14 01:46:45;;;;;;;;;;;;;;;6.00;74.10;98809.22;5093071;28;19912;-81
2023/12/14 01:49:11;;;;;;;;;;;;;;;5.97;74.46;98806.94;5093056;28;20411;-81
2023/12/14 01:51:36;;;;;;;;;;;;;;;5.95;73.96;98802.84;5092893;28;20312;-81
2023/12/14 01:54:01;;;;;;;;;;;;;;;5.95;74.18;98802.84;5093073;28;19916;-81
2023/12/14 01:56:27;;;;;;;;;;;;;;;5.93;73.75;98805.59;5092904;28;19919;-80
2023/12/14 01:58:52;;;;;;;;;;;;;;;5.87;74.05;98795.75;5091609;28;20003;-81
2023/12/14 02:01:28;;;;;;;;;;;;;;;5.85;74.38;98812.63;5092780;28;19982;-80
2023/12/14 02:03:54;;;;;;;;;;;;;;;5.86;74.26;98803.78;5092875;28;20396;-81
2023/12/14 02:06:20;;;;;;;;;;;;;;;5.86;74.32;98801.16;5092619;28;19920;-80
2023/12/14 02:08:45;;;;;;;;;;;;;;;5.88;74.46;98804.41;5092798;28;19919;-82
2023/12/14 02:11:11;;;;;;;;;;;;;;;5.88;74.62;98807.84;5091462;28;19912;-80
2023/12/14 02:13:36;;;;;;;;;;;;;;;5.91;73.96;98806.75;5092611;28;19912;-80
2023/12/14 02:16:01;;;;;;;;;;;;;;;5.89;73.81;98806.06;5092576;28;20445;-81
2023/12/14 02:18:27;;;;;;;;;;;;;;;5.89;74.63;98800.81;5092578;28;19920;-81
2023/12/14 02:20:52;;;;;;;;;;;;;;;5.90;73.91;98807.72;5091259;28;20000;-80
2023/12/14 02:23:17;;;;;;;;;;;;;;;5.86;73.87;98812.44;5092604;28;19965;-80
2023/12/14 02:25:43;;;;;;;;;;;;;;;5.87;74.48;98815.88;5092509;28;19922;-80
2023/12/14 02:28:08;;;;;;;;;;;;;;;5.86;74.48;98799.34;5092510;28;20424;-80
2023/12/14 02:30:36;;;;;;;;;;;;;;;5.86;74.23;98801.16;5092288;28;19966;-81
2023/12/14 02:33:02;;;;;;;;;;;;;;;5.84;74.46;98797.88;5092499;28;19995;-81
2023/12/14 02:35:27;;;;;;;;;;;;;;;5.85;73.96;98804.75;5091854;28;20432;-81
2023/12/14 02:37:52;;;;;;;;;;;;;;;5.84;73.78;98796.06;5092209;28;19916;-80
2023/12/14 02:40:18;;;;;;;;;;;;;;;5.83;73.96;98806.72;5090919;28;19912;-80
2023/12/14 02:42:43;;;;;;;;;;;;;;;5.86;74.11;98796.72;5090778;28;20001;-80
2023/12/14 02:45:09;;;;;;;;;;;;;;;5.87;74.39;98800.97;5092218;28;19912;-81
2023/12/14 02:47:34;;;;;;;;;;;;;;;5.86;74.39;98811.63;5092014;28;19912;-81
2023/12/14 02:49:59;;;;;;;;;;;;;;;5.88;73.74;98804.41;5092365;28;19908;-81
2023/12/14 02:52:25;;;;;;;;;;;;;;;5.83;73.71;98798.88;5090755;28;19919;-81
2023/12/14 02:54:50;;;;;;;;;;;;;;;5.85;73.69;98802.13;5091963;28;19912;-81
2023/12/14 02:57:16;;;;;;;;;;;;;;;5.86;73.87;98811.63;5090695;28;19919;-81
2023/12/14 02:59:41;;;;;;;;;;;;;;;5.83;74.35;98801.47;5091749;28;19908;-80
2023/12/14 03:02:06;;;;;;;;;;;;;;;5.82;73.96;98800.66;5091649;28;19946;-81
2023/12/14 03:04:32;;;;;;;;;;;;;;;5.86;74.34;98795.91;5092029;28;20434;-80
2023/12/14 03:06:57;;;;;;;;;;;;;;;5.87;74.33;98802.78;5091688;28;19926;-80
2023/12/14 03:09:22;;;;;;;;;;;;;;;5.88;74.09;98823.56;5091861;28;19916;-80
2023/12/14 03:11:48;;;;;;;;;;;;;;;5.87;74.09;98813.25;5091756;28;20407;-80
2023/12/14 03:14:14;;;;;;;;;;;;;;;5.86;73.99;98814.25;5091654;28;20309;-81
2023/12/14 03:16:39;;;;;;;;;;;;;;;5.82;74.09;98797.22;5091749;28;19912;-80
2023/12/14 03:19:05;;;;;;;;;;;;;;;5.84;74.22;98803.13;5091575;28;19912;-81
2023/12/14 03:21:30;;;;;;;;;;;;;;;5.78;74.28;98798.53;5091391;28;19916;-80
2023/12/14 03:23:56;;;;;;;;;;;;;;;5.77;74.28;98799.53;5091572;28;19912;-81
2023/12/14 03:26:21;;;;;;;;;;;;;;;5.79;73.94;98805.41;5090440;28;19912;-81
2023/12/14 03:28:47;;;;;;;;;;;;;;;5.80;74.37;98807.06;5091543;28;19912;-80
2023/12/14 03:31:15;;;;;;;;;;;;;;;5.82;73.88;98808.53;5091346;28;19919;-81
2023/12/14 03:33:40;;;;;;;;;;;;;;;5.83;74.00;98811.97;5091502;28;19931;-80
2023/12/14 03:36:06;;;;;;;;;;;;;;;5.82;73.80;98797.22;5091430;28;19922;-81
2023/12/14 03:38:31;;;;;;;;;;;;;;;5.80;74.08;98797.41;5091408;28;20304;-81
2023/12/14 03:40:57;;;;;;;;;;;;;;;5.78;73.65;98804.59;5090117;28;19916;-81
2023/12/14 03:43:22;;;;;;;;;;;;;;;5.78;74.31;98807.22;5091650;28;19916;-80
2023/12/14 03:45:47;;;;;;;;;;;;;;;5.75;74.20;98805.75;5091784;28;19908;-81
2023/12/14 03:48:13;;;;;;;;;;;;;;;5.73;74.14;98810.34;5095821;28;19916;-81
2023/12/14 03:50:38;;;;;;;;;;;;;;;5.71;73.81;98808.88;5095507;28;19999;-80
2023/12/14 03:53:03;;;;;;;;;;;;;;;5.66;73.93;98808.53;5094129;28;19904;-81
2023/12/14 03:55:29;;;;;;;;;;;;;;;5.64;73.79;98807.88;5095460;28;19919;-81
2023/12/14 03:57:54;;;;;;;;;;;;;;;5.60;73.56;98804.78;5095373;28;19919;-81
2023/12/14 04:00:20;;;;;;;;;;;;;;;5.55;74.02;98809.69;5093815;28;19919;-81
2023/12/14 04:02:45;;;;;;;;;;;;;;;5.57;74.00;98809.53;5095363;28;20003;-82
2023/12/14 04:05:10;;;;;;;;;;;;;;;5.48;73.58;98813.94;5095050;28;19919;-80
2023/12/14 04:07:39;;;;;;;;;;;;;;;5.48;74.43;98823.59;5095024;28;19919;-80
2023/12/14 04:10:04;;;;;;;;;;;;;;;5.50;74.03;98830.31;5095347;28;20373;-81
2023/12/14 04:12:30;;;;;;;;;;;;;;;5.52;74.17;98824.91;5095038;28;19961;-81
2023/12/14 04:14:57;;;;;;;;;;;;;;;5.55;73.67;98825.41;5094461;28;20147;-81
2023/12/14 04:17:23;;;;;;;;;;;;;;;5.56;73.88;98829.66;5095016;28;20365;-81
2023/12/14 04:19:48;;;;;;;;;;;;;;;5.59;73.97;98826.72;5093306;28;20308;-81
2023/12/14 04:22:13;;;;;;;;;;;;;;;5.57;73.59;98825.22;5093133;28;19920;-80
2023/12/14 04:24:39;;;;;;;;;;;;;;;5.56;74.14;98802.66;5094793;28;19977;-81
2023/12/14 04:27:04;;;;;;;;;;;;;;;5.57;73.63;98812.97;5094954;28;19916;-81
2023/12/14 04:29:29;;;;;;;;;;;;;;;5.53;73.88;98811.66;5095008;28;19912;-80
2023/12/14 04:31:55;;;;;;;;;;;;;;;5.51;73.68;98821.47;5094676;28;19995;-81
2023/12/14 04:34:20;;;;;;;;;;;;;;;5.55;74.21;98819.34;5094763;28;19919;-81
2023/12/14 04:36:45;;;;;;;;;;;;;;;5.56;73.80;98820.97;5094877;28;19912;-81
2023/12/14 04:39:11;;;;;;;;;;;;;;;5.59;73.66;98810.19;5094530;28;19912;-81
2023/12/14 04:41:36;;;;;;;;;;;;;;;5.63;73.52;98809.69;5094170;28;19920;-81
2023/12/14 04:44:02;;;;;;;;;;;;;;;5.61;73.85;98810.84;5093049;28;20007;-81
2023/12/14 04:46:27;;;;;;;;;;;;;;;5.61;73.44;98803.78;5094135;28;19912;-81
2023/12/14 04:48:52;;;;;;;;;;;;;;;5.62;73.90;98810.66;5094439;28;20044;-80
2023/12/14 04:51:18;;;;;;;;;;;;;;;5.62;73.29;98794.97;5094069;28;19952;-80
2023/12/14 04:53:43;;;;;;;;;;;;;;;5.61;73.59;98788.09;5094086;28;19919;-82
2023/12/14 04:56:10;;;;;;;;;;;;;;;5.60;73.11;98802.16;5094135;28;20367;-81
2023/12/14 04:58:35;;;;;;;;;;;;;;;5.58;73.51;98798.06;5093944;28;19919;-80
2023/12/14 05:01:00;;;;;;;;;;;;;;;5.56;73.18;98803.47;5094172;28;20312;-80
2023/12/14 05:03:26;;;;;;;;;;;;;;;5.55;73.20;98807.06;5092588;28;20404;-81
2023/12/14 05:05:51;;;;;;;;;;;;;;;5.55;73.64;98806.25;5093848;28;19927;-81
2023/12/14 05:08:16;;;;;;;;;;;;;;;5.53;73.09;98811.66;5093842;28;20497;-81
2023/12/14 05:10:42;;;;;;;;;;;;;;;5.54;73.50;98812.47;5093924;28;20435;-81
2023/12/14 05:13:07;;;;;;;;;;;;;;;5.55;73.30;98806.25;5099950;28;19904;-80
2023/12/14 05:15:32;;;;;;;;;;;;;;;5.53;72.66;98803.81;5094056;28;20002;-81
2023/12/14 05:17:58;;;;;;;;;;;;;;;5.51;73.27;98807.56;5092660;28;19950;-80
2023/12/14 05:20:23;;;;;;;;;;;;;;;5.48;73.17;98803.47;5093779;28;19935;-81
2023/12/14 05:22:48;;;;;;;;;;;;;;;5.48;73.47;98805.28;5093920;28;20002;-81
2023/12/14 05:25:14;;;;;;;;;;;;;;;5.49;73.31;98801.66;5093791;28;19950;-81
2023/12/14 05:27:40;;;;;;;;;;;;;;;5.48;73.07;98786.94;5092137;28;20454;-80
2023/12/14 05:30:05;;;;;;;;;;;;;;;5.46;72.92;98784.50;5093344;28;19923;-81
2023/12/14 05:32:31;;;;;;;;;;;;;;;5.46;73.22;98786.28;5093565;28;19912;-81
2023/12/14 05:34:56;;;;;;;;;;;;;;;5.39;73.30;98786.13;5093223;28;19912;-81
2023/12/14 05:37:21;;;;;;;;;;;;;;;5.38;73.24;98782.69;5091939;28;19916;-81
2023/12/14 05:39:47;;;;;;;;;;;;;;;5.40;73.06;98787.75;5093338;28;19912;-80
2023/12/14 05:42:15;;;;;;;;;;;;;;;5.42;73.63;98777.94;5093083;28;19927;-80
2023/12/14 05:44:41;;;;;;;;;;;;;;;5.40;73.22;98779.91;5093433;28;19912;-81
2023/12/14 05:47:06;;;;;;;;;;;;;;;5.38;73.34;98781.88;5093527;28;20311;-80
2023/12/14 05:49:32;;;;;;;;;;;;;;;5.37;73.54;98781.06;5093352;28;20385;-81
2023/12/14 05:51:58;;;;;;;;;;;;;;;5.39;73.38;98797.41;5092105;28;20377;-81
2023/12/14 05:54:23;;;;;;;;;;;;;;;5.40;73.13;98787.75;5093275;28;19923;-81
2023/12/14 05:56:49;;;;;;;;;;;;;;;5.38;73.27;98793.16;5091771;28;19912;-81
2023/12/14 05:59:14;;;;;;;;;;;;;;;5.39;72.78;98784.31;5092972;28;19908;-81
2023/12/14 06:01:39;;;;;;;;;;;;;;;5.36;72.87;98779.41;5092714;28;19921;-80
2023/12/14 06:04:05;;;;;;;;;;;;;;;5.40;72.95;98779.91;5092854;28;19916;-80
2023/12/14 06:06:30;;;;;;;;;;;;;;;5.43;72.70;98798.72;5092595;28;20393;-81
2023/12/14 06:08:55;;;;;;;;;;;;;;;5.45;72.84;98808.22;5092090;28;20395;-81
2023/12/14 06:11:21;;;;;;;;;;;;;;;5.41;72.99;98805.09;5092814;28;19912;-82
2023/12/14 06:13:46;;;;;;;;;;;;;;;5.43;72.91;98793.50;5091317;28;19912;-81
2023/12/14 06:16:12;;;;;;;;;;;;;;;5.42;73.10;98791.84;5092691;28;20341;-81
2023/12/14 06:18:41;;;;;;;;;;;;;;;5.37;72.99;98795.94;5092347;28;19919;-81
2023/12/14 06:21:06;;;;;;;;;;;;;;;5.34;73.11;98801.50;5090962;28;20028;-81
2023/12/14 06:23:32;;;;;;;;;;;;;;;5.33;73.12;98805.09;5092465;28;19916;-81
2023/12/14 06:25:58;;;;;;;;;;;;;;;5.33;73.10;98816.38;5092271;28;20401;-80
2023/12/14 06:28:23;;;;;;;;;;;;;;;5.37;72.99;98822.94;5092383;28;19956;-81
2023/12/14 06:30:48;;;;;;;;;;;;;;;5.37;73.01;98830.78;5092451;28;19959;-81
2023/12/14 06:33:14;;;;;;;;;;;;;;;5.35;72.76;98824.91;5092343;28;19943;-80
2023/12/14 06:35:39;;;;;;;;;;;;;;;5.35;72.90;98837.16;5092480;28;19948;-80
2023/12/14 06:38:04;;;;;;;;;;;;;;;5.37;73.38;98837.81;5092625;28;19974;-80
2023/12/14 06:40:30;;;;;;;;;;;;;;;5.34;72.75;98822.44;5092171;28;20408;-80
2023/12/14 06:42:55;;;;;;;;;;;;;;;5.34;73.19;98830.28;5092451;28;20294;-82
2023/12/14 06:45:20;;;;;;;;;;;;;;;5.41;73.53;98834.72;5092545;28;20384;-81
2023/12/14 06:47:46;;;;;;;;;;;;;;;5.44;73.20;98830.97;5092600;28;19935;-82
2023/12/14 06:50:13;;;;;;;;;;;;;;;5.48;73.16;98840.13;5086093;28;19924;-81
2023/12/14 06:52:38;;;;;;;;;;;;;;;5.50;73.16;98846.03;5078982;28;19908;-81
2023/12/14 06:55:04;;;;;;;;;;;;;;;5.52;72.92;98830.16;5081892;28;19916;-81
2023/12/14 06:57:29;;;;;;;;;;;;;;;5.56;72.79;98837.50;5079584;28;19940;-82
2023/12/14 06:59:54;;;;;;;;;;;;;;;5.53;72.25;98834.41;5108830;28;20339;-80
2023/12/14 07:02:20;;;;;;;;;;;;;;;5.55;72.75;98856.81;5088777;28;20439;-80
2023/12/14 07:04:45;;;;;;;;;;;;;;;5.56;72.63;98852.41;5091030;28;19912;-81
2023/12/14 07:07:12;;;;;;;;;;;;;;;5.54;72.82;98857.81;5105249;28;20400;-81
2023/12/14 07:09:38;;;;;;;;;;;;;;;5.55;72.93;98853.38;5101568;28;19919;-80
2023/12/14 07:12:03;;;;;;;;;;;;;;;5.57;72.97;98846.19;5112114;28;20354;-81
2023/12/14 07:14:29;;;;;;;;;;;;;;;5.60;73.22;98854.53;5098940;28;20393;-80
2023/12/14 07:16:54;;;;;;;;;;;;;;;5.67;72.77;98847.66;5078854;28;20032;-80
2023/12/14 07:19:20;;;;;;;;;;;;;;;5.72;72.76;98847.97;5083329;28;19963;-80
2023/12/14 07:21:45;;;;;;;;;;;;;;;5.77;72.68;98851.91;5099729;28;20360;-79
2023/12/14 07:24:10;;;;;;;;;;;;;;;5.81;72.82;98842.75;5096922;28;20320;-79
2023/12/14 07:26:36;;;;;;;;;;;;;;;5.83;72.97;98844.22;5095724;28;20006;-80
2023/12/14 07:29:01;;;;;;;;;;;;;;;5.87;72.57;98863.03;5093670;28;19916;-80
2023/12/14 07:31:28;;;;;;;;;;;;;;;5.92;72.21;98868.63;5093270;28;19916;-80
2023/12/14 07:33:54;;;;;;;;;;;;;;;5.95;72.70;98863.91;5095623;28;19908;-80
2023/12/14 07:36:19;;;;;;;;;;;;;;;5.95;72.74;98871.78;5090317;28;19924;-80
2023/12/14 07:38:45;;;;;;;;;;;;;;;5.96;72.62;98862.94;5079015;28;19916;-80
2023/12/14 07:41:10;;;;;;;;;;;;;;;5.96;72.86;98860.31;5084047;28;20320;-81
2023/12/14 07:43:35;;;;;;;;;;;;;;;6.00;72.90;98861.63;5077959;28;20006;-80
2023/12/14 07:46:01;;;;;;;;;;;;;;;6.04;72.46;98857.69;5081326;28;20195;-81
2023/12/14 07:48:28;;;;;;;;;;;;;;;6.10;72.07;98864.06;5075972;28;19977;-81
2023/12/14 07:50:53;;;;;;;;;;;;;;;6.17;71.88;98845.88;5077672;28;19924;-80
2023/12/14 07:53:19;;;;;;;;;;;;;;;6.21;71.99;98840.13;5090873;28;20313;-80
2023/12/14 07:55:44;;;;;;;;;;;;;;;6.26;72.32;98842.25;5098626;28;20311;-80
2023/12/14 07:58:09;;;;;;;;;;;;;;;6.31;71.94;98842.56;5092579;28;19990;-79
2023/12/14 08:00:35;;;;;;;;;;;;;;;6.36;72.24;98837.63;5096431;28;19945;-81
2023/12/14 08:03:00;;;;;;;;;;;;;;;6.43;71.91;98848.25;5089095;28;19916;-81
2023/12/14 08:05:26;;;;;;;;;;;;;;;6.48;72.29;98848.56;5088389;28;19969;-79
2023/12/14 08:07:52;;;;;;;;;;;;;;;6.51;72.13;98848.22;5082680;28;19920;-81
2023/12/14 08:10:17;;;;;;;;;;;;;;;6.57;71.61;98844.94;5092737;28;19920;-80
2023/12/14 08:15:27;;;;;;;;;;;;;;;6.61;71.74;98840.97;5090516;28;20345;-79
2023/12/14 08:17:52;;;;;;;;;;;;;;;6.66;71.63;98849.16;5091733;28;19916;-80
2023/12/14 08:20:23;;;;;;;;;;;;;;;6.73;72.19;98842.28;5092053;28;19916;-80
2023/12/14 08:22:49;;;;;;;;;;;;;;;6.78;71.52;98844.38;5080514;28;19920;-80
2023/12/14 08:25:14;;;;;;;;;;;;;;;6.79;72.34;98833.72;5094632;28;20300;-80
2023/12/14 08:27:40;;;;;;;;;;;;;;;6.83;72.19;98834.19;5093189;28;20400;-81
2023/12/14 08:30:05;;;;;;;;;;;;;;;6.86;71.54;98841.72;5094505;28;19916;-81
2023/12/14 08:32:31;;;;;;;;;;;;;;;6.87;71.61;98833.69;5074065;28;20007;-82
2023/12/14 08:34:56;;;;;;;;;;;;;;;6.91;71.91;98834.16;5091497;28;19926;-81
2023/12/14 08:37:21;;;;;;;;;;;;;;;6.96;71.39;98827.41;5095102;28;19937;-83
2023/12/14 08:39:47;;;;;;;;;;;;;;;7.01;71.39;98825.06;5082720;28;19916;-80
2023/12/14 08:42:12;;;;;;;;;;;;;;;7.05;71.54;98835.22;5092004;28;19924;-80
2023/12/14 08:44:41;;;;;;;;;;;;;;;7.06;71.69;98836.88;5087851;28;20385;-79
2023/12/14 08:47:08;;;;;;;;;;;;;;;7.11;71.74;98830.09;5082952;28;19935;-80
2023/12/14 08:49:34;;;;;;;;;;;;;;;7.18;71.74;98830.22;5082530;28;20361;-82
2023/12/14 08:51:59;;;;;;;;;;;;;;;7.24;71.64;98832.16;5093095;28;20008;-85
2023/12/14 08:54:25;;;;;;;;;;;;;;;7.26;71.63;98835.41;5093850;28;19969;-82
2023/12/14 08:56:50;;;;;;;;;;;;;;;7.33;71.84;98845.06;5095324;28;19947;-82
2023/12/14 08:59:15;;;;;;;;;;;;;;;7.35;72.05;98858.00;5098753;28;20376;-81
2023/12/14 09:01:41;;;;;;;;;;;;;;;7.35;72.01;98855.38;5082770;28;19931;-81
2023/12/14 09:04:06;;;;;;;;;;;;;;;7.33;72.54;98854.75;5088217;28;19916;-81
2023/12/14 09:06:31;;;;;;;;;;;;;;;7.29;72.11;98840.31;5093831;28;20393;-81
2023/12/14 09:08:57;;;;;;;;;;;;;;;7.28;72.30;98847.38;5097207;28;20007;-84
2023/12/14 09:11:22;;;;;;;;;;;;;;;7.35;72.17;98847.50;5089780;28;19970;-80
2023/12/14 09:13:47;;;;;;;;;;;;;;;7.40;72.64;98850.44;5093669;28;19945;-82
2023/12/14 09:16:13;;;;;;;;;;;;;;;7.42;72.74;98843.19;5080906;28;20046;-81
2023/12/14 09:18:38;;;;;;;;;;;;;;;7.47;72.38;98840.88;5093954;28;19995;-81
2023/12/14 09:21:04;;;;;;;;;;;;;;;7.51;72.29;98852.69;5089444;28;19949;-82
2023/12/14 09:23:29;;;;;;;;;;;;;;;7.51;72.34;98839.53;5072049;28;20328;-83
2023/12/14 09:25:56;;;;;;;;;;;;;;;7.51;72.25;98841.34;5072550;28;19916;-80
2023/12/14 09:28:21;;;;;;;;;;;;;;;7.55;72.35;98834.75;5079529;28;19945;-80
2023/12/14 09:30:46;;;;;;;;;;;;;;;7.57;71.85;98828.34;5080697;28;20011;-81
2023/12/14 09:33:12;;;;;;;;;;;;;;;7.58;72.42;98832.59;5102451;28;19915;-80
2023/12/14 09:35:38;;;;;;;;;;;;;;;7.59;72.39;98839.47;5093616;28;19934;-80
2023/12/14 09:38:04;;;;;;;;;;;;;;;7.60;72.41;98835.88;5087305;28;19916;-81
2023/12/14 09:40:29;;;;;;;;;;;;;;;7.62;72.38;98825.19;5090744;28;19916;-80
2023/12/14 09:42:55;;;;;;;;;;;;;;;7.63;71.65;98822.38;5083775;28;20005;-81
2023/12/14 09:45:23;;;;;;;;;;;;;;;7.62;71.32;98820.75;5084106;28;19916;-81
2023/12/14 09:47:49;;;;;;;;;;;;;;;7.54;71.37;98815.56;5074374;28;19913;-81
2023/12/14 09:50:16;;;;;;;;;;;;;;;7.51;71.99;98813.28;5072513;28;19939;-82
2023/12/14 09:52:45;;;;;;;;;;;;;;;7.49;71.60;98801.31;5078977;28;20417;-81
2023/12/14 09:55:10;;;;;;;;;;;;;;;7.52;71.89;98801.78;5091569;28;20405;-81
2023/12/14 09:57:36;;;;;;;;;;;;;;;7.53;72.06;98777.16;5089278;28;19916;-81
2023/12/14 10:00:01;;;;;;;;;;;;;;;7.51;72.14;98780.94;5084967;28;19920;-82
2023/12/14 10:02:27;;;;;;;;;;;;;;;7.54;72.03;98776.16;5102040;28;19919;-81
2023/12/14 10:04:52;;;;;;;;;;;;;;;7.57;72.30;98783.69;5113236;28;19912;-80
2023/12/14 10:07:18;;;;;;;;;;;;;;;7.57;71.91;98781.06;5091732;28;20302;-83
2023/12/14 10:09:43;;;;;;;;;;;;;;;7.61;71.72;98784.94;5091122;28;19927;-80
2023/12/14 10:12:09;;;;;;;;;;;;;;;7.67;72.04;98782.59;5076496;28;19981;-81
2023/12/14 10:14:35;;;;;;;;;;;;;;;7.69;72.12;98770.13;5088717;28;20401;-80
2023/12/14 10:17:20;;;;;;;;;;;;;;;7.72;71.48;98761.88;5080598;28;19943;-82
2023/12/14 10:19:46;;;;;;;;;;;;;;;7.77;71.31;98778.72;5092707;28;19912;-83
2023/12/14 10:22:15;;;;;;;;;;;;;;;7.70;71.91;98783.06;5092449;28;20003;-81
2023/12/14 10:24:44;;;;;;;;;;;;;;;7.74;72.44;98779.09;5086307;28;19935;-82
2023/12/14 10:27:11;;;;;;;;;;;;;;;7.77;71.59;98772.66;5093246;28;20003;-82
2023/12/14 10:29:39;;;;;;;;;;;;;;;7.76;72.27;98760.53;5103004;28;20034;-80
2023/12/14 10:32:06;;;;;;;;;;;;;;;7.80;71.51;98751.28;5093372;28;19976;-83
2023/12/14 10:34:32;;;;;;;;;;;;;;;7.81;71.68;98745.03;5094410;28;19915;-82
2023/12/14 10:36:58;;;;;;;;;;;;;;;7.85;71.72;98739.22;5080660;28;20395;-82
2023/12/14 10:39:25;;;;;;;;;;;;;;;7.92;71.56;98736.69;5086895;28;19956;-82
2023/12/14 10:41:53;;;;;;;;;;;;;;;7.98;71.34;98733.34;5089714;28;19950;-83
2023/12/14 10:44:20;;;;;;;;;;;;;;;8.02;71.18;98729.34;5096204;28;19916;-85
2023/12/14 10:46:48;;;;;;;;;;;;;;;8.07;71.26;98740.16;5094333;28;19945;-81
2023/12/14 10:49:13;;;;;;;;;;;;;;;8.11;71.28;98730.91;5096273;28;19920;-81
2023/12/14 10:51:42;;;;;;;;;;;;;;;8.17;70.90;98719.66;5091110;28;19916;-82
2023/12/14 10:54:08;;;;;;;;;;;;;;;8.16;70.97;98717.22;5092349;28;19919;-82
2023/12/14 10:56:33;;;;;;;;;;;;;;;8.20;70.91;98716.69;5074117;28;19920;-81
2023/12/14 10:59:00;;;;;;;;;;;;;;;8.24;71.03;98717.13;5088629;28;19919;-80
2023/12/14 11:01:25;;;;;;;;;;;;;;;8.25;71.07;98697.72;5084549;28;19998;-81
2023/12/14 11:03:57;;;;;;;;;;;;;;;8.26;70.81;98694.91;5094821;28;19920;-82
2023/12/14 11:06:31;;;;;;;;;;;;;;;8.29;70.84;98691.09;5086156;28;19972;-81
2023/12/14 11:08:58;;;;;;;;;;;;;;;8.33;70.76;98683.66;5089840;28;19924;-81
2023/12/14 11:11:27;;;;;;;;;;;;;;;8.32;71.25;98689.91;5090076;28;19992;-82
2023/12/14 11:13:53;;;;;;;;;;;;;;;8.32;71.03;98697.81;5085296;28;19916;-82
2023/12/14 11:16:20;;;;;;;;;;;;;;;8.34;70.88;98693.22;5090149;28;20385;-81
2023/12/14 11:18:45;;;;;;;;;;;;;;;8.36;70.95;98693.84;5074436;28;19916;-81
2023/12/14 11:21:17;;;;;;;;;;;;;;;8.37;70.79;98690.22;5081082;28;19981;-81
2023/12/14 11:23:42;;;;;;;;;;;;;;;8.40;71.22;98689.84;5084079;28;19970;-83
2023/12/14 11:26:11;;;;;;;;;;;;;;;8.38;71.23;98686.59;5076750;28;19917;-80
2023/12/14 11:28:37;;;;;;;;;;;;;;;8.40;71.67;98689.84;5091875;28;19962;-82
2023/12/14 11:31:06;;;;;;;;;;;;;;;8.39;71.95;98688.22;5093804;28;20000;-81
2023/12/14 11:33:34;;;;;;;;;;;;;;;8.35;71.43;98695.66;5093698;28;20482;-80
2023/12/14 11:36:01;;;;;;;;;;;;;;;8.32;71.51;98693.38;5081471;28;20010;-80
2023/12/14 11:38:27;;;;;;;;;;;;;;;8.34;71.56;98686.13;5076582;28;19924;-81
2023/12/14 11:40:52;;;;;;;;;;;;;;;8.33;71.66;98679.25;5099379;28;20387;-81
2023/12/14 11:43:20;;;;;;;;;;;;;;;8.31;71.63;98677.78;5090615;28;19970;-81
2023/12/14 11:45:45;;;;;;;;;;;;;;;8.29;71.29;98680.59;5090160;28;19919;-80
2023/12/14 11:48:11;;;;;;;;;;;;;;;8.28;71.89;98689.47;5077694;28;20015;-81
2023/12/14 11:50:41;;;;;;;;;;;;;;;8.23;71.56;98687.41;5089941;28;19998;-81
2023/12/14 11:53:07;;;;;;;;;;;;;;;8.24;71.89;98690.84;5091345;28;20403;-81
2023/12/14 11:55:33;;;;;;;;;;;;;;;8.24;71.34;98686.41;5085058;28;19916;-81
2023/12/14 11:57:59;;;;;;;;;;;;;;;8.24;71.89;98675.88;5090293;28;19936;-81
2023/12/14 12:00:25;;;;;;;;;;;;;;;8.28;71.53;98664.00;5090012;28;20343;-80
2023/12/14 12:02:51;;;;;;;;;;;;;;;8.29;71.34;98672.69;5090326;28;19927;-80
2023/12/14 12:05:18;;;;;;;;;;;;;;;8.25;71.63;98676.69;5079160;28;19920;-82
2023/12/14 12:07:44;;;;;;;;;;;;;;;8.19;72.43;98672.97;5088781;28;20014;-82
2023/12/14 12:10:10;;;;;;;;;;;;;;;8.14;72.08;98677.94;5083380;28;19912;-80
2023/12/14 12:12:35;;;;;;;;;;;;;;;8.11;72.69;98674.88;5086757;28;19916;-82
2023/12/14 12:15:01;;;;;;;;;;;;;;;8.06;72.51;98683.31;5091616;28;20396;-79
2023/12/14 12:17:26;;;;;;;;;;;;;;;8.06;72.62;98675.41;5095263;28;19912;-80
2023/12/14 12:19:52;;;;;;;;;;;;;;;8.07;72.44;98678.88;5093344;28;19920;-82
2023/12/14 12:22:17;;;;;;;;;;;;;;;8.08;72.22;98668.16;5074407;28;20774;-81
2023/12/14 12:24:42;;;;;;;;;;;;;;;8.07;72.59;98652.56;5085307;28;20430;-81
2023/12/14 12:27:09;;;;;;;;;;;;;;;8.09;72.50;98659.28;5087214;28;19916;-81
2023/12/14 12:29:34;;;;;;;;;;;;;;;8.13;72.43;98662.34;5086338;28;19916;-81
2023/12/14 12:32:00;;;;;;;;;;;;;;;8.12;72.42;98676.50;5091429;28;20336;-83
2023/12/14 12:34:25;;;;;;;;;;;;;;;8.12;72.50;98682.56;5078557;28;19924;-80
2023/12/14 12:36:51;;;;;;;;;;;;;;;8.11;72.81;98686.19;5081822;28;19923;-80
2023/12/14 12:39:16;;;;;;;;;;;;;;;8.11;73.09;98685.38;5089380;28;19916;-80
2023/12/14 12:41:42;;;;;;;;;;;;;;;8.12;72.93;98693.09;5092652;28;19959;-80
2023/12/14 12:44:08;;;;;;;;;;;;;;;8.16;72.25;98688.28;5094320;28;20434;-79
2023/12/14 12:46:34;;;;;;;;;;;;;;;8.22;72.63;98680.50;5092960;28;19923;-80
2023/12/14 12:49:00;;;;;;;;;;;;;;;8.24;72.51;98686.41;5084543;28;19979;-79
2023/12/14 12:51:26;;;;;;;;;;;;;;;8.19;72.94;98687.94;5075315;28;19965;-81
2023/12/14 12:53:52;;;;;;;;;;;;;;;8.19;72.78;98686.13;5091060;28;19962;-80